VOBG/BLR METAR and TAF weather

Enter ICAO airport designator
Station Type Date Time Source
VOBG METAR 2021/02/27 09:30 UTC NOAA

VOBG 270930Z 01003KT 8000 FEW015 33/05 Q1011 NOSIG


Station Type Date Time Source
VOBG Decoded METAR 2021/02/27 09:30 UTC NOAA

Bangalore / Hindustan, India (VOBG) 12-57N 077-40E
Feb 27, 2021 - 04:30 AM EST / 2021.02.27 0930 UTC
Wind: from the N (010 degrees) at 3 MPH (3 KT):0
Visibility: 4 mile(s):0
Sky conditions: mostly clear
Temperature: 91 F (33 C)
Dew Point: 41 F (5 C)
Relative Humidity: 17%
Pressure (altimeter): 29.85 in. Hg (1011 hPa)
ob: VOBG 270930Z 01003KT 8000 FEW015 33/05 Q1011 NOSIG
cycle: 9

Station Type Date Time Source
VOBG TAF 2021/02/26 15:00 UTC NOAA

TAF VOBG 261400Z 2615/2624 VRB02KT 6000 NSC
BECMG 2622/2623 3000 BR SCT010

Example: see airport list